Time;durP1;ratioP1;P1;durP2;ratioP2;P2;SDS_P1;SDS_P2;PMS_P1;PMS_P2;Temp;Humidity;BMP_temperature;BMP_pressure;BME280_temperature;BME280_humidity;BME280_pressure;Samples;Min_cycle;Max_cycle;Signal;HPM_P1;HPM_P2
2024/01/05 00:01:53;;;;;;;3.20;3.00;;;1.00;90.10;;;;;;4990605;28;20511;-59
2024/01/05 00:04:19;;;;;;;5.50;2.30;;;1.00;89.00;;;;;;4991182;28;20452;-59
2024/01/05 00:06:49;;;;;;;2.40;2.30;;;0.90;90.80;;;;;;4989110;28;20542;-59
2024/01/05 00:09:16;;;;;;;4.50;3.40;;;0.80;87.60;;;;;;4990826;28;20475;-60
2024/01/05 00:11:43;;;;;;;2.57;2.40;;;0.70;89.60;;;;;;4988719;28;20453;-60
2024/01/05 00:14:09;;;;;;;2.70;2.50;;;0.60;87.40;;;;;;4987357;28;20954;-60
2024/01/05 00:16:36;;;;;;;7.00;2.47;;;0.60;83.80;;;;;;4981257;28;20920;-60
2024/01/05 00:19:03;;;;;;;3.23;2.93;;;0.70;80.30;;;;;;4990611;28;20546;-59
2024/01/05 00:21:29;;;;;;;4.10;2.80;;;0.70;81.20;;;;;;4988565;28;20447;-59
2024/01/05 00:23:57;;;;;;;3.50;2.87;;;0.70;82.40;;;;;;4983333;28;20450;-60
2024/01/05 00:26:25;;;;;;;4.30;2.33;;;0.70;82.30;;;;;;4988675;28;20487;-59
2024/01/05 00:28:51;;;;;;;2.73;2.50;;;0.70;81.20;;;;;;4986099;28;20559;-60
2024/01/05 00:31:19;;;;;;;2.30;2.10;;;0.70;79.30;;;;;;4988464;28;20880;-59
2024/01/05 00:33:46;;;;;;;3.03;2.50;;;0.70;78.90;;;;;;4986182;28;20972;-60
2024/01/05 00:36:13;;;;;;;2.77;2.53;;;0.60;79.50;;;;;;4987319;28;20491;-59
2024/01/05 00:38:41;;;;;;;2.60;2.43;;;0.60;81.00;;;;;;4990057;28;20460;-60
2024/01/05 00:41:09;;;;;;;2.83;2.43;;;0.60;78.70;;;;;;4987673;28;20528;-59
2024/01/05 00:43:35;;;;;;;2.20;2.10;;;0.60;77.10;;;;;;4991096;28;21017;-60
2024/01/05 00:46:02;;;;;;;3.97;2.20;;;0.60;75.30;;;;;;4987080;28;20492;-60
2024/01/05 00:48:28;;;;;;;2.93;2.57;;;0.60;74.10;;;;;;4987845;28;20653;-58
2024/01/05 00:50:55;;;;;;;1.90;1.80;;;0.60;75.10;;;;;;4984414;28;20523;-59
2024/01/05 00:53:21;;;;;;;3.33;2.70;;;0.70;73.50;;;;;;4989235;28;20612;-60
2024/01/05 00:55:48;;;;;;;2.30;2.20;;;0.70;73.10;;;;;;4989814;28;20469;-59
2024/01/05 00:58:16;;;;;;;3.37;2.00;;;0.70;74.50;;;;;;4988048;28;20875;-59
2024/01/05 01:00:42;;;;;;;2.87;2.20;;;0.70;76.30;;;;;;4994214;28;20531;-59
2024/01/05 01:03:09;;;;;;;2.50;2.30;;;0.70;75.20;;;;;;4992636;28;20499;-59
2024/01/05 01:05:35;;;;;;;4.50;2.40;;;0.80;74.00;;;;;;4984592;28;20567;-59
2024/01/05 01:08:02;;;;;;;2.83;2.27;;;0.70;77.90;;;;;;4990373;28;20464;-60
2024/01/05 01:10:29;;;;;;;3.20;2.80;;;0.70;80.50;;;;;;4995472;28;20519;-60
2024/01/05 01:12:55;;;;;;;2.30;2.10;;;0.70;79.90;;;;;;4997061;28;20436;-59
2024/01/05 01:15:23;;;;;;;2.70;2.40;;;0.70;78.00;;;;;;5000456;28;20449;-60
2024/01/05 01:17:50;;;;;;;2.37;2.17;;;0.80;74.80;;;;;;4997545;28;20535;-60
2024/01/05 01:20:16;;;;;;;2.60;2.40;;;0.80;74.90;;;;;;4997349;28;20441;-59
2024/01/05 01:22:43;;;;;;;2.33;2.23;;;0.80;77.60;;;;;;4993813;28;20491;-59
2024/01/05 01:25:09;;;;;;;3.53;2.17;;;0.80;76.30;;;;;;4999152;28;20459;-59
2024/01/05 01:27:36;;;;;;;2.20;2.00;;;0.80;78.30;;;;;;4994106;28;20483;-59
2024/01/05 01:30:03;;;;;;;2.57;2.13;;;0.70;82.00;;;;;;4994583;28;20440;-59
2024/01/05 01:32:31;;;;;;;2.70;2.50;;;0.80;80.50;;;;;;4994348;28;20534;-59
2024/01/05 01:34:58;;;;;;;2.70;2.50;;;0.80;79.00;;;;;;4993243;28;20477;-59
2024/01/05 01:37:24;;;;;;;3.07;2.03;;;0.70;83.10;;;;;;4994639;28;20479;-59
2024/01/05 01:39:51;;;;;;;2.00;1.90;;;0.70;87.10;;;;;;4985559;28;20546;-61
2024/01/05 01:42:18;;;;;;;2.40;2.20;;;0.70;81.60;;;;;;4994030;28;20937;-59
2024/01/05 01:44:44;;;;;;;2.40;1.80;;;0.70;83.70;;;;;;4993839;28;20458;-59
2024/01/05 01:47:11;;;;;;;3.00;2.40;;;0.80;82.30;;;;;;4990924;28;20542;-59
2024/01/05 01:49:39;;;;;;;2.20;2.10;;;0.80;79.00;;;;;;4987514;28;21061;-59
2024/01/05 01:52:07;;;;;;;4.13;2.93;;;0.80;80.90;;;;;;4993787;28;20449;-59
2024/01/05 01:54:34;;;;;;;3.40;2.17;;;0.80;81.00;;;;;;4991613;28;20517;-60
2024/01/05 01:57:03;;;;;;;2.13;2.03;;;0.80;81.80;;;;;;4987083;28;20471;-59
2024/01/05 01:59:29;;;;;;;2.10;2.00;;;0.80;84.10;;;;;;4987194;28;20492;-59
2024/01/05 02:01:57;;;;;;;2.10;1.90;;;0.80;83.10;;;;;;4987837;28;20907;-60
2024/01/05 02:04:26;;;;;;;3.40;3.10;;;0.80;83.80;;;;;;4986437;28;20835;-59
2024/01/05 02:06:55;;;;;;;3.53;2.30;;;0.80;84.60;;;;;;4990050;28;20476;-59
2024/01/05 02:09:22;;;;;;;2.20;1.93;;;0.80;84.60;;;;;;4982947;28;20582;-59
2024/01/05 02:11:48;;;;;;;3.43;2.50;;;0.80;83.80;;;;;;4987291;28;20461;-60
2024/01/05 02:14:15;;;;;;;4.33;2.50;;;0.80;79.00;;;;;;4987676;28;20492;-60
2024/01/05 02:16:42;;;;;;;5.43;2.23;;;0.80;80.40;;;;;;5009750;28;20445;-60
2024/01/05 02:19:08;;;;;;;2.50;2.30;;;0.80;81.40;;;;;;5000372;28;20488;-61
2024/01/05 02:21:40;;;;;;;2.60;2.40;;;0.90;76.80;;;;;;5007840;28;20492;-66
2024/01/05 02:24:08;;;;;;;3.37;2.27;;;0.80;87.30;;;;;;5008721;28;22558;-60
2024/01/05 02:26:35;;;;;;;2.17;2.07;;;0.80;85.70;;;;;;5007805;28;20910;-59
2024/01/05 02:29:03;;;;;;;2.57;2.37;;;0.80;85.80;;;;;;4991548;28;20520;-59
2024/01/05 02:31:30;;;;;;;4.83;2.20;;;0.80;87.80;;;;;;4991763;28;20467;-59
2024/01/05 02:33:57;;;;;;;2.50;1.83;;;0.80;87.90;;;;;;4991648;28;20441;-59
2024/01/05 02:36:23;;;;;;;2.03;1.83;;;0.80;88.30;;;;;;4986684;28;20564;-59
2024/01/05 02:38:50;;;;;;;2.60;2.40;;;0.80;91.70;;;;;;4991416;28;20527;-59
2024/01/05 02:41:18;;;;;;;2.10;2.00;;;0.80;89.60;;;;;;4991613;28;20452;-59
2024/01/05 02:43:44;;;;;;;5.40;2.13;;;0.80;89.90;;;;;;4986368;28;20507;-59
2024/01/05 02:46:11;;;;;;;2.07;1.93;;;0.80;87.80;;;;;;4983920;28;20998;-59
2024/01/05 02:48:37;;;;;;;2.97;2.50;;;0.80;85.70;;;;;;4988995;28;20995;-59
2024/01/05 02:51:04;;;;;;;2.07;1.97;;;0.80;86.10;;;;;;4988603;28;20453;-59
2024/01/05 02:53:31;;;;;;;3.53;2.17;;;0.80;84.90;;;;;;4988130;28;20528;-60
2024/01/05 02:55:57;;;;;;;2.50;2.30;;;0.80;92.00;;;;;;4990167;28;20441;-59
2024/01/05 02:58:25;;;;;;;2.30;2.20;;;0.80;82.60;;;;;;4987797;28;20522;-59
2024/01/05 03:00:52;;;;;;;3.17;1.70;;;0.80;84.10;;;;;;4984055;28;20461;-59
2024/01/05 03:03:19;;;;;;;1.90;1.80;;;0.80;83.80;;;;;;4992081;28;20579;-59
2024/01/05 03:05:46;;;;;;;5.43;2.50;;;0.80;83.50;;;;;;4993129;28;20472;-59
2024/01/05 03:08:12;;;;;;;3.27;2.13;;;0.80;81.70;;;;;;4993695;28;20468;-59
2024/01/05 03:10:39;;;;;;;7.10;4.00;;;0.80;81.70;;;;;;4988132;28;20440;-59
2024/01/05 03:13:05;;;;;;;2.23;2.03;;;0.70;85.40;;;;;;4986155;28;20441;-60
2024/01/05 03:15:33;;;;;;;2.07;1.97;;;0.80;79.00;;;;;;4988404;28;20487;-60
2024/01/05 03:17:59;;;;;;;2.40;2.20;;;0.80;81.50;;;;;;4983900;28;20710;-59
2024/01/05 03:20:26;;;;;;;2.27;2.17;;;0.70;86.40;;;;;;4989230;28;20441;-59
2024/01/05 03:22:52;;;;;;;2.53;2.00;;;0.70;78.60;;;;;;4990033;28;20441;-59
2024/01/05 03:25:19;;;;;;;3.67;2.03;;;0.80;74.80;;;;;;4990564;28;20444;-60
2024/01/05 03:27:46;;;;;;;2.73;2.47;;;0.80;77.00;;;;;;4983622;28;20519;-59
2024/01/05 03:30:12;;;;;;;3.43;2.47;;;0.80;78.60;;;;;;4991427;28;20515;-59
2024/01/05 03:32:40;;;;;;;5.77;2.27;;;0.80;76.30;;;;;;4983701;28;20540;-52
2024/01/05 03:35:07;;;;;;;2.23;2.03;;;0.70;79.80;;;;;;4986389;28;20456;-52
2024/01/05 03:37:34;;;;;;;2.50;2.30;;;0.70;77.40;;;;;;4985807;28;20511;-51
2024/01/05 03:40:01;;;;;;;4.60;2.40;;;0.80;74.00;;;;;;4987155;28;20456;-51
2024/01/05 03:42:27;;;;;;;3.33;2.53;;;0.80;75.30;;;;;;4990315;28;20503;-51
2024/01/05 03:44:54;;;;;;;3.17;2.17;;;0.70;77.90;;;;;;4992293;28;20495;-51
2024/01/05 03:47:20;;;;;;;2.40;2.20;;;0.80;76.70;;;;;;4991028;28;20484;-52
2024/01/05 03:49:48;;;;;;;3.37;2.13;;;0.70;75.30;;;;;;4983447;28;20512;-51
2024/01/05 03:52:15;;;;;;;2.20;2.00;;;0.80;77.00;;;;;;4988531;28;20510;-51
2024/01/05 03:54:41;;;;;;;2.23;2.00;;;0.70;79.00;;;;;;4987344;28;20512;-52
2024/01/05 03:57:08;;;;;;;2.30;1.80;;;0.70;76.00;;;;;;4988844;28;20437;-51
2024/01/05 03:59:35;;;;;;;4.17;2.20;;;0.60;79.60;;;;;;4991555;28;20511;-58
2024/01/05 04:02:01;;;;;;;2.77;2.57;;;0.60;78.40;;;;;;4989891;28;20499;-50
2024/01/05 04:04:28;;;;;;;1.80;1.70;;;0.60;76.10;;;;;;4990933;28;20486;-52
2024/01/05 04:06:56;;;;;;;2.33;2.10;;;0.60;75.60;;;;;;4981980;28;20484;-51
2024/01/05 04:09:23;;;;;;;1.73;1.63;;;0.60;76.60;;;;;;4986139;28;20475;-52
2024/01/05 04:11:49;;;;;;;8.93;1.90;;;0.60;77.10;;;;;;4991082;28;20926;-52
2024/01/05 04:14:16;;;;;;;2.57;1.90;;;0.50;79.60;;;;;;4991568;28;20519;-51
2024/01/05 04:16:42;;;;;;;2.10;1.90;;;0.60;77.40;;;;;;4985339;28;20436;-52
2024/01/05 04:19:09;;;;;;;2.13;1.90;;;0.60;78.10;;;;;;4986785;28;20534;-51
2024/01/05 04:21:36;;;;;;;3.40;1.80;;;0.60;79.30;;;;;;4989307;28;20817;-52
2024/01/05 04:24:04;;;;;;;2.33;2.20;;;0.50;87.20;;;;;;4986479;28;20505;-51
2024/01/05 04:26:31;;;;;;;2.40;2.20;;;0.50;85.30;;;;;;4989029;28;20636;-52
2024/01/05 04:28:57;;;;;;;1.67;1.40;;;0.50;85.70;;;;;;4990070;28;20492;-52
2024/01/05 04:31:23;;;;;;;2.40;1.50;;;0.60;83.80;;;;;;4990111;28;20947;-51
2024/01/05 04:33:50;;;;;;;3.23;2.27;;;0.60;91.20;;;;;;4991532;28;20656;-51
2024/01/05 04:36:18;;;;;;;2.90;1.90;;;0.60;91.30;;;;;;4989023;28;20469;-50
2024/01/05 04:38:45;;;;;;;1.70;1.60;;;0.50;95.00;;;;;;4986275;28;20488;-51
2024/01/05 04:41:15;;;;;;;5.83;1.67;;;0.50;96.20;;;;;;4987397;28;20815;-51
2024/01/05 04:43:43;;;;;;;6.43;1.73;;;0.50;98.00;;;;;;4986975;28;20887;-51
2024/01/05 04:46:10;;;;;;;6.53;1.90;;;0.50;99.00;;;;;;4984918;28;20464;-52
2024/01/05 04:48:37;;;;;;;5.40;2.20;;;0.50;99.60;;;;;;4988236;28;20490;-51
2024/01/05 04:51:03;;;;;;;3.13;2.07;;;0.40;99.90;;;;;;4987974;28;20457;-51
2024/01/05 04:53:30;;;;;;;1.93;1.70;;;0.50;97.60;;;;;;4985367;28;20870;-51
2024/01/05 04:55:56;;;;;;;2.30;1.53;;;0.50;95.70;;;;;;4988298;28;20813;-51
2024/01/05 04:58:24;;;;;;;2.13;1.60;;;0.50;99.90;;;;;;4990535;28;20536;-51
2024/01/05 05:00:51;;;;;;;2.60;1.53;;;0.40;99.90;;;;;;4990169;28;20456;-51
2024/01/05 05:03:18;;;;;;;2.10;1.93;;;0.40;99.90;;;;;;4985060;28;20504;-51
2024/01/05 05:05:44;;;;;;;2.00;1.80;;;0.50;98.00;;;;;;4991518;28;20842;-51
2024/01/05 05:08:13;;;;;;;1.97;1.67;;;0.50;99.90;;;;;;4993167;28;20520;-51
2024/01/05 05:10:40;;;;;;;3.67;1.87;;;0.50;99.90;;;;;;5001200;28;20527;-52
2024/01/05 05:13:06;;;;;;;1.60;1.50;;;0.50;99.90;;;;;;4993969;28;20610;-52
2024/01/05 05:15:34;;;;;;;2.00;1.80;;;0.50;99.90;;;;;;4983621;28;20527;-51
2024/01/05 05:18:01;;;;;;;3.93;2.30;;;0.40;99.90;;;;;;4993676;28;21034;-52
2024/01/05 05:20:27;;;;;;;2.00;1.50;;;0.40;99.90;;;;;;4990180;28;20445;-52
2024/01/05 05:22:54;;;;;;;2.03;1.80;;;0.50;99.90;;;;;;4994289;28;20515;-52
2024/01/05 05:25:20;;;;;;;2.50;1.70;;;0.50;99.90;;;;;;4989286;28;20510;-51
2024/01/05 05:27:47;;;;;;;1.70;1.60;;;0.40;99.90;;;;;;4990037;28;20542;-51
2024/01/05 05:30:14;;;;;;;5.07;2.17;;;0.40;99.90;;;;;;4990540;28;20857;-52
2024/01/05 05:32:42;;;;;;;3.30;1.90;;;0.40;99.90;;;;;;4988095;28;20496;-59
2024/01/05 05:35:09;;;;;;;4.80;1.80;;;0.40;99.90;;;;;;4990224;28;20927;-59
2024/01/05 05:37:35;;;;;;;2.40;2.10;;;0.40;99.90;;;;;;4988950;28;20504;-59
2024/01/05 05:40:02;;;;;;;2.47;2.27;;;0.40;99.90;;;;;;4992046;28;20449;-59
2024/01/05 05:42:29;;;;;;;3.60;2.40;;;0.30;99.90;;;;;;4991263;28;20476;-59
2024/01/05 05:44:54;;;;;;;3.77;2.57;;;0.30;99.90;;;;;;4985865;28;20827;-59
2024/01/05 05:47:21;;;;;;;3.17;2.00;;;0.30;99.90;;;;;;4990567;28;20472;-59
2024/01/05 05:49:49;;;;;;;2.43;2.20;;;0.40;99.90;;;;;;4990980;28;20229;-58
2024/01/05 05:52:15;;;;;;;3.63;1.73;;;0.30;99.90;;;;;;4990815;28;20879;-59
2024/01/05 05:54:43;;;;;;;2.97;2.37;;;0.30;99.90;;;;;;4992221;28;20446;-59
2024/01/05 05:57:09;;;;;;;1.90;1.80;;;0.40;99.90;;;;;;4989446;28;20459;-60
2024/01/05 05:59:36;;;;;;;2.37;2.10;;;0.40;99.90;;;;;;4987637;28;20484;-59
2024/01/05 06:02:03;;;;;;;3.53;1.90;;;0.30;99.90;;;;;;4988748;28;20834;-59
2024/01/05 06:04:29;;;;;;;4.53;2.70;;;0.30;99.90;;;;;;4993044;28;20850;-59
2024/01/05 06:06:57;;;;;;;8.67;1.97;;;0.40;99.90;;;;;;4989613;28;20534;-59
2024/01/05 06:09:24;;;;;;;3.73;2.23;;;0.40;99.90;;;;;;4984315;28;20470;-58
2024/01/05 06:11:50;;;;;;;3.10;1.80;;;0.30;99.90;;;;;;4988825;28;21136;-58
2024/01/05 06:14:17;;;;;;;2.30;2.10;;;0.30;99.90;;;;;;4983128;28;20882;-59
2024/01/05 06:16:43;;;;;;;2.30;1.73;;;0.40;99.90;;;;;;4985067;28;20912;-59
2024/01/05 06:19:10;;;;;;;3.20;2.03;;;0.40;99.90;;;;;;4992638;28;20468;-59
2024/01/05 06:21:36;;;;;;;4.10;2.17;;;0.40;99.90;;;;;;4988274;28;20542;-59
2024/01/05 06:24:05;;;;;;;3.53;2.03;;;0.50;99.90;;;;;;4991425;28;20467;-59
2024/01/05 06:26:31;;;;;;;2.50;2.30;;;0.40;99.90;;;;;;4988887;28;20499;-59
2024/01/05 06:28:58;;;;;;;2.10;2.00;;;0.40;99.90;;;;;;4990431;28;20471;-59
2024/01/05 06:31:25;;;;;;;2.30;2.10;;;0.50;99.90;;;;;;4987887;28;20465;-59
2024/01/05 06:33:51;;;;;;;2.40;2.20;;;0.30;99.90;;;;;;5004249;28;20452;-59
2024/01/05 06:36:18;;;;;;;2.33;1.90;;;0.40;99.90;;;;;;5012263;28;21238;-59
2024/01/05 06:38:44;;;;;;;2.80;1.97;;;0.40;99.90;;;;;;5004268;28;20462;-59
2024/01/05 06:41:12;;;;;;;2.20;1.70;;;0.40;99.90;;;;;;5010426;28;20437;-59
2024/01/05 06:43:39;;;;;;;2.40;2.20;;;0.40;99.90;;;;;;4994935;28;20753;-59
2024/01/05 06:46:06;;;;;;;3.40;2.00;;;0.30;99.90;;;;;;4987234;28;20879;-59
2024/01/05 06:48:32;;;;;;;4.47;2.87;;;0.20;99.90;;;;;;4992695;28;20496;-59
2024/01/05 06:50:59;;;;;;;8.30;5.77;;;0.30;99.80;;;;;;4988516;28;20469;-59
2024/01/05 06:53:26;;;;;;;3.80;2.87;;;0.30;95.60;;;;;;4989811;28;20455;-59
2024/01/05 06:55:52;;;;;;;8.53;5.40;;;0.30;94.60;;;;;;4989541;28;20449;-59
2024/01/05 06:58:21;;;;;;;6.27;3.23;;;0.30;97.00;;;;;;4989570;28;20460;-60
2024/01/05 07:00:47;;;;;;;2.20;2.00;;;0.30;94.70;;;;;;4989240;28;20488;-59
2024/01/05 07:03:14;;;;;;;3.80;2.03;;;0.30;95.80;;;;;;4985010;28;20449;-60
2024/01/05 07:05:41;;;;;;;3.03;1.97;;;0.30;91.20;;;;;;4983429;28;20450;-60
2024/01/05 07:08:07;;;;;;;2.57;2.37;;;0.30;89.40;;;;;;4990276;28;20492;-59
2024/01/05 07:10:34;;;;;;;1.90;1.80;;;0.30;91.10;;;;;;4987607;28;20896;-59
2024/01/05 07:13:01;;;;;;;2.07;1.97;;;0.30;89.50;;;;;;4991211;28;20445;-59
2024/01/05 07:15:29;;;;;;;10.53;3.40;;;0.20;92.40;;;;;;4982370;28;20584;-60
2024/01/05 07:17:56;;;;;;;2.30;1.60;;;0.20;87.80;;;;;;4978734;28;20481;-60
2024/01/05 07:20:22;;;;;;;2.37;2.17;;;0.20;85.20;;;;;;4987727;28;20449;-59
2024/01/05 07:22:49;;;;;;;2.10;2.00;;;0.20;85.70;;;;;;4980215;28;20462;-59
2024/01/05 07:25:15;;;;;;;3.57;1.70;;;0.10;91.10;;;;;;4990152;28;20947;-59
2024/01/05 07:27:42;;;;;;;3.27;1.90;;;0.00;91.30;;;;;;4987211;28;20550;-60
2024/01/05 07:30:10;;;;;;;3.23;2.63;;;0.00;80.00;;;;;;4991165;28;20448;-61
2024/01/05 07:32:38;;;;;;;2.90;2.20;;;0.00;75.00;;;;;;4985063;28;20508;-60
2024/01/05 07:35:05;;;;;;;4.93;2.23;;;0.00;73.10;;;;;;4982691;28;20492;-60
2024/01/05 07:37:32;;;;;;;3.13;2.23;;;0.00;73.20;;;;;;4990291;28;20445;-60
2024/01/05 07:39:58;;;;;;;2.70;2.20;;;0.10;65.40;;;;;;4989009;28;20453;-59
2024/01/05 07:42:27;;;;;;;2.80;2.40;;;0.00;67.90;;;;;;4987907;28;20507;-59
2024/01/05 07:44:54;;;;;;;2.50;2.30;;;0.00;73.30;;;;;;4987089;28;20863;-60
2024/01/05 07:47:20;;;;;;;3.60;2.83;;;0.00;64.00;;;;;;4988095;28;20492;-60
2024/01/05 07:49:49;;;;;;;2.30;2.10;;;0.00;63.50;;;;;;4988259;28;20476;-59
2024/01/05 07:52:16;;;;;;;4.87;2.70;;;0.00;64.30;;;;;;4985031;28;20830;-60
2024/01/05 07:54:43;;;;;;;2.50;2.30;;;0.00;64.00;;;;;;4984014;28;20871;-59
2024/01/05 07:57:09;;;;;;;2.57;2.37;;;0.00;61.60;;;;;;4987167;28;20442;-60
2024/01/05 07:59:36;;;;;;;2.43;2.23;;;0.00;61.00;;;;;;4986557;28;20505;-61
2024/01/05 08:02:03;;;;;;;3.13;2.83;;;0.10;60.30;;;;;;4983910;28;20449;-59
2024/01/05 08:04:30;;;;;;;4.60;3.23;;;0.10;61.30;;;;;;4988051;28;20498;-59
2024/01/05 08:06:58;;;;;;;4.37;2.67;;;0.00;62.40;;;;;;4982468;28;20481;-60
2024/01/05 08:09:25;;;;;;;2.43;2.33;;;0.10;63.10;;;;;;4990598;28;21002;-60
2024/01/05 08:11:51;;;;;;;2.77;2.27;;;0.10;61.60;;;;;;4982672;28;20449;-58
2024/01/05 08:14:18;;;;;;;2.80;2.57;;;0.10;68.20;;;;;;4985429;28;20496;-58
2024/01/05 08:16:44;;;;;;;2.80;2.60;;;0.10;67.40;;;;;;4986728;28;20442;-58
2024/01/05 08:19:11;;;;;;;3.13;2.80;;;0.10;64.90;;;;;;4986068;28;20465;-58
2024/01/05 08:21:38;;;;;;;4.50;2.50;;;0.20;69.40;;;;;;4989254;28;20787;-58
2024/01/05 08:24:06;;;;;;;2.77;2.57;;;0.20;69.60;;;;;;4986244;28;20441;-58
2024/01/05 08:26:32;;;;;;;3.83;3.03;;;0.20;74.00;;;;;;4987437;28;20931;-58
2024/01/05 08:28:59;;;;;;;2.57;2.47;;;0.20;74.00;;;;;;4988512;28;20500;-58
2024/01/05 08:31:26;;;;;;;2.90;2.60;;;0.20;75.30;;;;;;4988017;28;20446;-58
2024/01/05 08:33:53;;;;;;;3.20;3.00;;;0.10;80.20;;;;;;4987438;28;20453;-59
2024/01/05 08:36:19;;;;;;;3.13;2.93;;;0.10;71.90;;;;;;4985421;28;20448;-59
2024/01/05 08:38:46;;;;;;;2.50;2.30;;;0.10;76.80;;;;;;4987471;28;20512;-58
2024/01/05 08:41:14;;;;;;;3.90;2.40;;;0.20;68.40;;;;;;4988036;28;20538;-58
2024/01/05 08:43:43;;;;;;;4.30;2.90;;;0.30;72.50;;;;;;4986405;28;20457;-58
2024/01/05 08:46:10;;;;;;;3.30;3.00;;;0.30;72.70;;;;;;4977858;28;20464;-58
2024/01/05 08:48:38;;;;;;;2.90;2.63;;;0.40;69.60;;;;;;4989374;28;20864;-57
2024/01/05 08:51:05;;;;;;;3.10;2.90;;;0.30;77.20;;;;;;4990691;28;20505;-59
2024/01/05 08:53:31;;;;;;;2.93;2.53;;;0.40;70.70;;;;;;4992441;28;20992;-58
2024/01/05 08:55:58;;;;;;;3.20;3.00;;;0.30;84.40;;;;;;4991395;28;20904;-59
2024/01/05 08:58:26;;;;;;;4.17;3.27;;;0.40;76.40;;;;;;4981899;28;21049;-58
2024/01/05 09:00:53;;;;;;;2.80;2.60;;;0.40;79.50;;;;;;4983651;28;20951;-58
2024/01/05 09:03:20;;;;;;;2.70;2.60;;;0.40;78.40;;;;;;4984118;28;20831;-57
2024/01/05 09:05:47;;;;;;;6.53;3.20;;;0.40;75.60;;;;;;4987512;28;20493;-58
2024/01/05 09:08:13;;;;;;;4.33;3.93;;;0.50;71.10;;;;;;4984809;28;20520;-59
2024/01/05 09:10:40;;;;;;;4.83;2.70;;;0.50;81.90;;;;;;4984819;28;21148;-59
2024/01/05 09:13:07;;;;;;;2.50;2.30;;;0.50;78.30;;;;;;4985982;28;20468;-58
2024/01/05 09:15:35;;;;;;;3.77;3.00;;;0.40;93.00;;;;;;4978407;28;20956;-59
2024/01/05 09:18:02;;;;;;;3.37;3.07;;;0.30;81.80;;;;;;4984307;28;20848;-58
2024/01/05 09:20:29;;;;;;;3.10;2.90;;;0.40;76.20;;;;;;4984113;28;20512;-58
2024/01/05 09:22:56;;;;;;;3.63;3.23;;;0.40;79.70;;;;;;4988501;28;20496;-58
2024/01/05 09:25:23;;;;;;;2.97;2.77;;;0.60;77.70;;;;;;4989372;28;20476;-57
2024/01/05 09:27:50;;;;;;;6.10;3.00;;;0.60;82.90;;;;;;4989134;28;20496;-58
2024/01/05 09:30:17;;;;;;;3.00;2.80;;;0.50;86.50;;;;;;4988543;28;20946;-58
2024/01/05 09:32:45;;;;;;;11.60;9.37;;;0.60;77.20;;;;;;4991811;28;20460;-58
2024/01/05 09:35:11;;;;;;;3.70;3.40;;;0.60;78.70;;;;;;4989355;28;20600;-58
2024/01/05 09:37:38;;;;;;;4.50;3.50;;;0.60;96.30;;;;;;4984596;28;21014;-58
2024/01/05 09:40:05;;;;;;;3.27;3.07;;;0.70;91.60;;;;;;4986582;28;20492;-58
2024/01/05 09:42:33;;;;;;;4.53;3.77;;;0.80;92.50;;;;;;4987431;28;20514;-58
2024/01/05 09:45:02;;;;;;;3.63;3.07;;;0.90;91.60;;;;;;4985097;28;20476;-58
2024/01/05 09:47:29;;;;;;;3.83;3.53;;;0.60;99.90;;;;;;4987457;28;20950;-58
2024/01/05 09:49:59;;;;;;;3.40;3.00;;;0.70;93.50;;;;;;4979372;28;20493;-58
2024/01/05 09:52:26;;;;;;;3.97;3.27;;;0.60;99.90;;;;;;4984516;28;20483;-57
2024/01/05 09:54:52;;;;;;;3.63;3.23;;;0.70;92.10;;;;;;4990688;28;20911;-58
2024/01/05 09:57:21;;;;;;;5.90;3.40;;;0.70;96.80;;;;;;4988582;28;20909;-58
2024/01/05 09:59:48;;;;;;;9.20;7.27;;;0.70;99.90;;;;;;4983305;28;20492;-58
2024/01/05 10:02:21;;;;;;;3.57;3.27;;;0.80;95.70;;;;;;4988052;28;20892;-58
2024/01/05 10:04:48;;;;;;;3.87;3.53;;;0.60;99.90;;;;;;4982392;28;20487;-58
2024/01/05 10:07:16;;;;;;;12.67;5.00;;;0.80;94.20;;;;;;4989870;28;20515;-57
2024/01/05 10:09:50;;;;;;;8.70;4.50;;;0.70;99.90;;;;;;4985455;28;20488;-58
2024/01/05 10:12:17;;;;;;;3.80;3.20;;;0.70;96.40;;;;;;4988172;28;20468;-58
2024/01/05 10:14:44;;;;;;;8.93;4.13;;;0.60;93.90;;;;;;4987658;28;20560;-58
2024/01/05 10:17:11;;;;;;;3.40;3.13;;;0.60;96.50;;;;;;4989241;28;20469;-58
2024/01/05 10:19:39;;;;;;;5.23;3.87;;;0.60;94.80;;;;;;4988710;28;20516;-58
2024/01/05 10:22:10;;;;;;;3.70;2.50;;;0.60;89.40;;;;;;4985801;28;20460;-58
2024/01/05 10:24:38;;;;;;;5.67;3.10;;;0.70;87.40;;;;;;4978963;28;20472;-58
2024/01/05 10:27:06;;;;;;;5.87;3.20;;;0.60;94.70;;;;;;4982610;28;20469;-58
2024/01/05 10:29:33;;;;;;;4.90;3.80;;;0.60;93.40;;;;;;4982254;28;20916;-58
2024/01/05 10:32:11;;;;;;;3.80;3.50;;;0.60;89.00;;;;;;4987937;28;20556;-59
2024/01/05 10:34:37;;;;;;;3.00;2.80;;;0.80;83.40;;;;;;4984442;28;20556;-58
2024/01/05 10:37:05;;;;;;;3.37;3.07;;;0.80;91.30;;;;;;4985053;28;20460;-58
2024/01/05 10:39:32;;;;;;;5.17;3.60;;;0.80;99.90;;;;;;4987332;28;20477;-58
2024/01/05 10:42:17;;;;;;;4.70;3.13;;;0.70;98.30;;;;;;4985670;28;20478;-58
2024/01/05 10:44:45;;;;;;;4.90;3.00;;;0.60;94.80;;;;;;4988018;28;20444;-58
2024/01/05 10:47:13;;;;;;;4.07;2.53;;;0.60;98.80;;;;;;4989725;28;20468;-58
2024/01/05 10:49:39;;;;;;;2.87;2.63;;;0.60;97.70;;;;;;4985322;28;20524;-59
2024/01/05 10:52:08;;;;;;;3.87;2.43;;;0.50;99.90;;;;;;4989257;28;20457;-57
2024/01/05 10:54:35;;;;;;;3.80;2.90;;;0.60;95.20;;;;;;4991274;28;20507;-58
2024/01/05 10:57:04;;;;;;;7.30;2.90;;;0.70;89.80;;;;;;4989561;28;20460;-58
2024/01/05 10:59:31;;;;;;;4.73;3.30;;;0.80;87.30;;;;;;4985674;28;20484;-58
2024/01/05 11:01:58;;;;;;;4.00;3.43;;;0.70;99.90;;;;;;4986740;28;20456;-58
2024/01/05 11:04:26;;;;;;;2.70;2.50;;;0.80;98.90;;;;;;4984609;28;20511;-58
2024/01/05 11:06:54;;;;;;;3.23;3.03;;;0.80;95.10;;;;;;4974317;28;20461;-57
2024/01/05 11:09:28;;;;;;;5.40;4.50;;;0.80;99.90;;;;;;4989872;28;21034;-58
2024/01/05 11:12:05;;;;;;;3.10;2.80;;;0.80;99.90;;;;;;4990109;28;20939;-57
2024/01/05 11:14:47;;;;;;;3.03;2.83;;;0.70;99.90;;;;;;4991336;28;20816;-57
2024/01/05 11:17:47;;;;;;;3.27;2.70;;;0.80;95.60;;;;;;4986977;28;20946;-58
2024/01/05 11:20:34;;;;;;;2.43;2.23;;;0.70;95.20;;;;;;4990762;28;20441;-58
2024/01/05 11:23:02;;;;;;;3.27;3.00;;;0.70;90.30;;;;;;4990169;28;20507;-58
2024/01/05 11:25:29;;;;;;;3.23;3.03;;;0.80;85.90;;;;;;4990052;28;20931;-58
2024/01/05 11:27:55;;;;;;;3.70;3.40;;;0.70;94.00;;;;;;4989736;28;20891;-57
2024/01/05 11:30:41;;;;;;;2.77;2.60;;;0.70;86.80;;;;;;4987742;28;20955;-58
2024/01/05 11:33:09;;;;;;;3.20;2.80;;;0.70;84.50;;;;;;4982966;28;20465;-56
2024/01/05 11:35:43;;;;;;;3.20;3.00;;;0.80;77.00;;;;;;4988988;28;21009;-56
2024/01/05 11:38:26;;;;;;;3.20;2.90;;;0.90;82.40;;;;;;4988305;28;20542;-56
2024/01/05 11:40:52;;;;;;;3.67;3.03;;;0.80;81.70;;;;;;4988095;28;20432;-56
2024/01/05 11:43:37;;;;;;;3.73;2.77;;;0.80;78.80;;;;;;4989014;28;20444;-56
2024/01/05 11:46:06;;;;;;;2.73;2.63;;;0.70;88.50;;;;;;4991306;28;20456;-51
2024/01/05 11:48:47;;;;;;;3.30;3.10;;;0.80;81.40;;;;;;4991662;28;20500;-50
2024/01/05 11:51:13;;;;;;;3.53;3.30;;;0.80;75.20;;;;;;4976351;28;20473;-52
2024/01/05 11:53:40;;;;;;;5.07;4.60;;;0.70;82.70;;;;;;4975163;28;20460;-52
2024/01/05 11:56:10;;;;;;;3.70;3.40;;;0.70;75.80;;;;;;4974672;28;22619;-50
2024/01/05 11:58:38;;;;;;;5.00;4.50;;;0.80;74.20;;;;;;4973646;28;20477;-52
2024/01/05 12:01:09;;;;;;;4.33;3.40;;;0.70;75.50;;;;;;4975486;28;20468;-52
2024/01/05 12:03:38;;;;;;;3.20;3.00;;;0.80;72.40;;;;;;4979263;28;20832;-52
2024/01/05 12:06:05;;;;;;;3.80;3.23;;;0.70;83.80;;;;;;4979569;28;20465;-51
2024/01/05 12:08:32;;;;;;;2.70;2.60;;;0.70;74.10;;;;;;4976705;28;20569;-50
2024/01/05 12:11:03;;;;;;;3.80;3.13;;;0.70;72.80;;;;;;4974454;28;20478;-52
2024/01/05 12:13:32;;;;;;;4.30;3.33;;;0.70;72.60;;;;;;4977784;28;20475;-57
2024/01/05 12:16:01;;;;;;;3.80;3.00;;;0.60;76.70;;;;;;4974458;28;20469;-55
2024/01/05 12:18:30;;;;;;;6.10;4.10;;;0.80;66.30;;;;;;4978599;28;20484;-56
2024/01/05 12:20:58;;;;;;;3.77;3.47;;;0.70;75.10;;;;;;4982445;28;20464;-50
2024/01/05 12:23:25;;;;;;;4.10;3.77;;;0.80;70.80;;;;;;4984299;28;20473;-51
2024/01/05 12:25:59;;;;;;;3.47;3.17;;;0.70;75.40;;;;;;4982906;28;20495;-51
2024/01/05 12:28:28;;;;;;;5.07;3.80;;;0.70;65.40;;;;;;4981290;28;20567;-51
2024/01/05 12:30:55;;;;;;;4.63;4.20;;;0.70;62.20;;;;;;4983755;28;20554;-51
2024/01/05 12:33:23;;;;;;;4.70;3.87;;;0.60;65.90;;;;;;4989194;28;20459;-51
2024/01/05 12:35:52;;;;;;;6.07;4.03;;;0.70;57.50;;;;;;4987443;28;20943;-51
2024/01/05 12:38:25;;;;;;;6.87;4.20;;;0.60;53.70;;;;;;4984746;28;20477;-52
2024/01/05 12:40:52;;;;;;;4.10;3.70;;;0.60;55.40;;;;;;4990960;28;20436;-51
2024/01/05 12:43:19;;;;;;;4.60;3.83;;;0.70;51.50;;;;;;4990254;28;20935;-50
2024/01/05 12:45:49;;;;;;;5.97;4.37;;;0.50;64.50;;;;;;4986678;28;20537;-51
2024/01/05 12:48:17;;;;;;;7.20;4.73;;;0.70;56.20;;;;;;4989247;28;21052;-51
2024/01/05 12:50:44;;;;;;;5.70;4.80;;;0.60;58.00;;;;;;4980149;28;20487;-51
2024/01/05 12:53:19;;;;;;;7.30;4.63;;;0.60;62.50;;;;;;4974398;28;20460;-51
2024/01/05 12:55:45;;;;;;;9.23;5.40;;;0.50;61.50;;;;;;4973850;28;20468;-51
2024/01/05 12:58:12;;;;;;;5.77;4.13;;;0.60;54.30;;;;;;4975574;28;20976;-51
2024/01/05 13:00:42;;;;;;;12.03;5.93;;;0.60;56.70;;;;;;4978985;28;20515;-52